sensor_id;sensor_type;location;lat;lon;timestamp;temperature;humidity
9949;DHT22;5013;51.840;8.276;2023-03-14T00:00:11;10.80;39.60
9949;DHT22;5013;51.840;8.276;2023-03-14T00:02:37;10.70;99.90
9949;DHT22;5013;51.840;8.276;2023-03-14T00:05:03;10.70;99.90
9949;DHT22;5013;51.840;8.276;2023-03-14T00:07:33;10.70;99.90
9949;DHT22;5013;51.840;8.276;2023-03-14T00:10:01;10.70;99.90
9949;DHT22;5013;51.840;8.276;2023-03-14T00:12:27;10.70;99.90
9949;DHT22;5013;51.840;8.276;2023-03-14T00:14:53;10.60;99.90
9949;DHT22;5013;51.840;8.276;2023-03-14T00:17:18;10.70;99.90
9949;DHT22;5013;51.840;8.276;2023-03-14T00:19:44;10.70;99.90
9949;DHT22;5013;51.840;8.276;2023-03-14T00:22:09;10.60;99.90
9949;DHT22;5013;51.840;8.276;2023-03-14T00:24:35;10.60;99.90
9949;DHT22;5013;51.840;8.276;2023-03-14T00:27:01;10.60;99.90
9949;DHT22;5013;51.840;8.276;2023-03-14T00:29:26;10.60;1.00
9949;DHT22;5013;51.840;8.276;2023-03-14T00:31:52;10.60;99.90
9949;DHT22;5013;51.840;8.276;2023-03-14T00:34:18;10.50;99.90
9949;DHT22;5013;51.840;8.276;2023-03-14T00:36:45;10.50;99.90
9949;DHT22;5013;51.840;8.276;2023-03-14T00:39:10;10.60;99.90
9949;DHT22;5013;51.840;8.276;2023-03-14T00:41:36;10.60;99.90
9949;DHT22;5013;51.840;8.276;2023-03-14T00:44:01;10.60;99.90
9949;DHT22;5013;51.840;8.276;2023-03-14T00:46:27;10.60;99.90
9949;DHT22;5013;51.840;8.276;2023-03-14T00:48:53;10.70;53.50
9949;DHT22;5013;51.840;8.276;2023-03-14T00:51:18;10.70;1.00
9949;DHT22;5013;51.840;8.276;2023-03-14T00:53:44;10.80;1.00
9949;DHT22;5013;51.840;8.276;2023-03-14T00:56:11;10.90;1.00
9949;DHT22;5013;51.840;8.276;2023-03-14T00:58:37;10.90;1.00
9949;DHT22;5013;51.840;8.276;2023-03-14T01:01:12;11.00;99.90
9949;DHT22;5013;51.840;8.276;2023-03-14T01:03:38;11.00;99.90
9949;DHT22;5013;51.840;8.276;2023-03-14T01:06:18;11.10;99.90
9949;DHT22;5013;51.840;8.276;2023-03-14T01:08:45;11.10;99.90
9949;DHT22;5013;51.840;8.276;2023-03-14T01:11:14;11.00;93.20
9949;DHT22;5013;51.840;8.276;2023-03-14T01:13:40;11.10;99.90
9949;DHT22;5013;51.840;8.276;2023-03-14T01:16:08;11.10;99.90
9949;DHT22;5013;51.840;8.276;2023-03-14T01:18:34;11.10;16.50
9949;DHT22;5013;51.840;8.276;2023-03-14T01:23:43;11.10;1.00
9949;DHT22;5013;51.840;8.276;2023-03-14T01:26:11;11.00;1.00
9949;DHT22;5013;51.840;8.276;2023-03-14T01:28:37;11.00;1.00
9949;DHT22;5013;51.840;8.276;2023-03-14T01:31:04;11.00;1.00
9949;DHT22;5013;51.840;8.276;2023-03-14T01:33:30;11.00;1.00
9949;DHT22;5013;51.840;8.276;2023-03-14T01:35:56;11.10;1.00
9949;DHT22;5013;51.840;8.276;2023-03-14T01:38:21;11.10;1.00
9949;DHT22;5013;51.840;8.276;2023-03-14T01:40:47;11.10;1.00
9949;DHT22;5013;51.840;8.276;2023-03-14T01:43:16;11.20;1.00
9949;DHT22;5013;51.840;8.276;2023-03-14T01:46:17;11.20;1.00
9949;DHT22;5013;51.840;8.276;2023-03-14T01:51:19;11.30;99.90
9949;DHT22;5013;51.840;8.276;2023-03-14T01:53:48;11.30;99.90
9949;DHT22;5013;51.840;8.276;2023-03-14T01:56:16;11.30;99.90
9949;DHT22;5013;51.840;8.276;2023-03-14T01:58:46;11.30;99.90
9949;DHT22;5013;51.840;8.276;2023-03-14T02:01:15;11.30;99.90
9949;DHT22;5013;51.840;8.276;2023-03-14T02:03:49;11.30;99.90
9949;DHT22;5013;51.840;8.276;2023-03-14T02:06:17;11.40;99.90
9949;DHT22;5013;51.840;8.276;2023-03-14T02:08:44;11.40;99.90
9949;DHT22;5013;51.840;8.276;2023-03-14T02:11:14;11.40;99.90
9949;DHT22;5013;51.840;8.276;2023-03-14T02:13:39;11.40;1.00
9949;DHT22;5013;51.840;8.276;2023-03-14T02:16:05;11.30;94.70
9949;DHT22;5013;51.840;8.276;2023-03-14T02:18:31;11.00;99.90
9949;DHT22;5013;51.840;8.276;2023-03-14T02:26:38;10.30;1.00
9949;DHT22;5013;51.840;8.276;2023-03-14T02:29:06;10.20;99.90
9949;DHT22;5013;51.840;8.276;2023-03-14T02:31:32;10.10;99.90
9949;DHT22;5013;51.840;8.276;2023-03-14T02:33:58;10.10;99.90
9949;DHT22;5013;51.840;8.276;2023-03-14T02:36:25;10.00;99.90
9949;DHT22;5013;51.840;8.276;2023-03-14T02:39:19;10.00;1.00
9949;DHT22;5013;51.840;8.276;2023-03-14T02:41:45;10.00;33.10
9949;DHT22;5013;51.840;8.276;2023-03-14T02:44:11;9.90;1.00
9949;DHT22;5013;51.840;8.276;2023-03-14T02:46:37;9.90;1.00
9949;DHT22;5013;51.840;8.276;2023-03-14T02:49:07;9.90;1.00
9949;DHT22;5013;51.840;8.276;2023-03-14T02:51:33;9.90;1.00
9949;DHT22;5013;51.840;8.276;2023-03-14T02:54:00;9.80;1.00
9949;DHT22;5013;51.840;8.276;2023-03-14T02:56:25;9.80;99.90
9949;DHT22;5013;51.840;8.276;2023-03-14T02:58:51;9.80;99.90
9949;DHT22;5013;51.840;8.276;2023-03-14T03:01:17;9.70;99.90
9949;DHT22;5013;51.840;8.276;2023-03-14T03:03:42;9.60;99.90
9949;DHT22;5013;51.840;8.276;2023-03-14T03:06:08;9.60;99.90
9949;DHT22;5013;51.840;8.276;2023-03-14T03:08:33;9.50;99.90
9949;DHT22;5013;51.840;8.276;2023-03-14T03:10:59;9.40;92.00
9949;DHT22;5013;51.840;8.276;2023-03-14T03:13:25;9.40;99.90
9949;DHT22;5013;51.840;8.276;2023-03-14T03:15:52;9.30;1.00
9949;DHT22;5013;51.840;8.276;2023-03-14T03:18:18;9.20;1.00
9949;DHT22;5013;51.840;8.276;2023-03-14T03:20:43;9.20;1.00
9949;DHT22;5013;51.840;8.276;2023-03-14T03:23:09;9.30;72.10
9949;DHT22;5013;51.840;8.276;2023-03-14T03:25:34;9.30;1.00
9949;DHT22;5013;51.840;8.276;2023-03-14T03:28:01;9.30;99.90
9949;DHT22;5013;51.840;8.276;2023-03-14T03:30:27;9.30;99.90
9949;DHT22;5013;51.840;8.276;2023-03-14T03:32:53;9.30;1.00
9949;DHT22;5013;51.840;8.276;2023-03-14T03:35:18;9.40;1.00
9949;DHT22;5013;51.840;8.276;2023-03-14T03:37:44;9.30;2.50
9949;DHT22;5013;51.840;8.276;2023-03-14T03:40:10;9.40;1.00
9949;DHT22;5013;51.840;8.276;2023-03-14T03:42:36;9.40;1.00
9949;DHT22;5013;51.840;8.276;2023-03-14T03:45:02;9.40;90.00
9949;DHT22;5013;51.840;8.276;2023-03-14T03:47:30;9.50;99.90
9949;DHT22;5013;51.840;8.276;2023-03-14T03:49:56;9.50;1.00
9949;DHT22;5013;51.840;8.276;2023-03-14T03:52:21;9.50;1.00
9949;DHT22;5013;51.840;8.276;2023-03-14T03:54:47;9.50;1.00
9949;DHT22;5013;51.840;8.276;2023-03-14T03:57:13;9.50;1.00
9949;DHT22;5013;51.840;8.276;2023-03-14T03:59:38;9.50;9.20
9949;DHT22;5013;51.840;8.276;2023-03-14T04:02:05;9.50;1.00
9949;DHT22;5013;51.840;8.276;2023-03-14T04:04:31;9.50;1.00
9949;DHT22;5013;51.840;8.276;2023-03-14T04:06:57;9.40;1.00
9949;DHT22;5013;51.840;8.276;2023-03-14T04:09:22;9.40;1.00
9949;DHT22;5013;51.840;8.276;2023-03-14T04:11:48;9.30;1.00
9949;DHT22;5013;51.840;8.276;2023-03-14T04:14:13;9.30;16.20
9949;DHT22;5013;51.840;8.276;2023-03-14T04:16:39;9.30;37.20
9949;DHT22;5013;51.840;8.276;2023-03-14T04:19:04;9.30;79.10
9949;DHT22;5013;51.840;8.276;2023-03-14T04:21:30;9.30;99.90
9949;DHT22;5013;51.840;8.276;2023-03-14T04:23:56;9.30;8.20
9949;DHT22;5013;51.840;8.276;2023-03-14T04:26:21;9.30;1.00
9949;DHT22;5013;51.840;8.276;2023-03-14T04:28:47;9.30;1.00
9949;DHT22;5013;51.840;8.276;2023-03-14T04:31:18;9.20;1.00
9949;DHT22;5013;51.840;8.276;2023-03-14T04:33:45;9.20;1.00
9949;DHT22;5013;51.840;8.276;2023-03-14T04:36:11;9.20;1.00
9949;DHT22;5013;51.840;8.276;2023-03-14T04:38:37;9.10;1.00
9949;DHT22;5013;51.840;8.276;2023-03-14T04:41:02;9.20;1.00
9949;DHT22;5013;51.840;8.276;2023-03-14T04:43:28;9.10;1.00
9949;DHT22;5013;51.840;8.276;2023-03-14T04:45:55;9.10;1.00
9949;DHT22;5013;51.840;8.276;2023-03-14T04:48:21;9.10;1.00
9949;DHT22;5013;51.840;8.276;2023-03-14T04:50:47;9.10;1.00
9949;DHT22;5013;51.840;8.276;2023-03-14T04:53:14;9.00;1.00
9949;DHT22;5013;51.840;8.276;2023-03-14T04:55:40;9.00;36.50
9949;DHT22;5013;51.840;8.276;2023-03-14T04:58:05;9.00;82.80
9949;DHT22;5013;51.840;8.276;2023-03-14T05:00:31;9.10;99.90
9949;DHT22;5013;51.840;8.276;2023-03-14T05:02:57;9.10;99.90
9949;DHT22;5013;51.840;8.276;2023-03-14T05:05:23;9.10;99.90
9949;DHT22;5013;51.840;8.276;2023-03-14T05:07:49;9.20;99.90
9949;DHT22;5013;51.840;8.276;2023-03-14T05:10:15;9.20;99.90
9949;DHT22;5013;51.840;8.276;2023-03-14T05:12:41;9.20;99.90
9949;DHT22;5013;51.840;8.276;2023-03-14T05:15:07;9.20;99.90
9949;DHT22;5013;51.840;8.276;2023-03-14T05:17:33;9.20;99.90
9949;DHT22;5013;51.840;8.276;2023-03-14T05:19:59;9.20;99.90
9949;DHT22;5013;51.840;8.276;2023-03-14T05:22:25;9.20;99.90
9949;DHT22;5013;51.840;8.276;2023-03-14T05:24:50;9.30;99.90
9949;DHT22;5013;51.840;8.276;2023-03-14T05:27:16;9.30;99.90
9949;DHT22;5013;51.840;8.276;2023-03-14T05:29:42;9.40;99.90
9949;DHT22;5013;51.840;8.276;2023-03-14T05:32:07;9.40;1.00
9949;DHT22;5013;51.840;8.276;2023-03-14T05:34:33;9.40;1.00
9949;DHT22;5013;51.840;8.276;2023-03-14T05:36:59;9.40;1.00
9949;DHT22;5013;51.840;8.276;2023-03-14T05:39:24;9.40;1.00
9949;DHT22;5013;51.840;8.276;2023-03-14T05:41:50;9.50;1.00
9949;DHT22;5013;51.840;8.276;2023-03-14T05:44:16;9.40;1.00
9949;DHT22;5013;51.840;8.276;2023-03-14T05:46:42;9.40;1.00
9949;DHT22;5013;51.840;8.276;2023-03-14T05:49:07;9.40;99.90
9949;DHT22;5013;51.840;8.276;2023-03-14T05:51:33;9.40;1.00
9949;DHT22;5013;51.840;8.276;2023-03-14T05:53:58;9.30;1.00
9949;DHT22;5013;51.840;8.276;2023-03-14T05:56:24;9.30;1.00
9949;DHT22;5013;51.840;8.276;2023-03-14T05:58:49;9.20;99.90
9949;DHT22;5013;51.840;8.276;2023-03-14T06:01:15;9.20;99.90
9949;DHT22;5013;51.840;8.276;2023-03-14T06:03:41;9.20;99.90
9949;DHT22;5013;51.840;8.276;2023-03-14T06:06:06;9.20;99.90
9949;DHT22;5013;51.840;8.276;2023-03-14T06:08:32;9.20;99.90
9949;DHT22;5013;51.840;8.276;2023-03-14T06:10:58;9.20;60.40
9949;DHT22;5013;51.840;8.276;2023-03-14T06:13:24;9.10;99.90
9949;DHT22;5013;51.840;8.276;2023-03-14T06:15:49;9.10;99.90
9949;DHT22;5013;51.840;8.276;2023-03-14T06:18:15;9.10;99.90
9949;DHT22;5013;51.840;8.276;2023-03-14T06:20:40;9.00;1.00
9949;DHT22;5013;51.840;8.276;2023-03-14T06:23:07;9.00;1.00
9949;DHT22;5013;51.840;8.276;2023-03-14T06:25:33;9.00;1.00
9949;DHT22;5013;51.840;8.276;2023-03-14T06:27:59;9.00;1.00
9949;DHT22;5013;51.840;8.276;2023-03-14T06:30:25;8.90;1.00
9949;DHT22;5013;51.840;8.276;2023-03-14T06:32:50;8.90;1.00
9949;DHT22;5013;51.840;8.276;2023-03-14T06:35:16;9.00;1.00
9949;DHT22;5013;51.840;8.276;2023-03-14T06:37:42;9.00;1.00
9949;DHT22;5013;51.840;8.276;2023-03-14T06:40:09;9.10;1.00
9949;DHT22;5013;51.840;8.276;2023-03-14T06:42:35;9.10;1.00
9949;DHT22;5013;51.840;8.276;2023-03-14T06:45:00;9.10;1.00
9949;DHT22;5013;51.840;8.276;2023-03-14T06:47:26;9.10;1.00
9949;DHT22;5013;51.840;8.276;2023-03-14T06:49:51;9.10;1.00
9949;DHT22;5013;51.840;8.276;2023-03-14T06:52:17;9.10;1.00
9949;DHT22;5013;51.840;8.276;2023-03-14T06:54:43;9.00;1.00
9949;DHT22;5013;51.840;8.276;2023-03-14T06:57:08;9.10;1.00
9949;DHT22;5013;51.840;8.276;2023-03-14T06:59:34;9.00;1.00
9949;DHT22;5013;51.840;8.276;2023-03-14T07:01:59;9.00;1.00
9949;DHT22;5013;51.840;8.276;2023-03-14T07:04:25;9.10;1.00
9949;DHT22;5013;51.840;8.276;2023-03-14T07:06:50;9.20;1.00
9949;DHT22;5013;51.840;8.276;2023-03-14T07:09:16;9.20;1.00
9949;DHT22;5013;51.840;8.276;2023-03-14T07:11:44;9.30;1.00
9949;DHT22;5013;51.840;8.276;2023-03-14T07:14:10;9.30;1.00
9949;DHT22;5013;51.840;8.276;2023-03-14T07:16:36;9.50;1.00
9949;DHT22;5013;51.840;8.276;2023-03-14T07:19:02;9.60;1.00
9949;DHT22;5013;51.840;8.276;2023-03-14T07:21:28;9.60;1.00
9949;DHT22;5013;51.840;8.276;2023-03-14T07:23:54;9.70;1.00
9949;DHT22;5013;51.840;8.276;2023-03-14T07:26:19;9.90;1.00
9949;DHT22;5013;51.840;8.276;2023-03-14T07:28:45;10.00;1.00
9949;DHT22;5013;51.840;8.276;2023-03-14T07:31:11;10.00;1.00
9949;DHT22;5013;51.840;8.276;2023-03-14T07:33:37;10.00;1.00
9949;DHT22;5013;51.840;8.276;2023-03-14T07:36:02;10.00;1.00
9949;DHT22;5013;51.840;8.276;2023-03-14T07:38:29;10.10;1.00
9949;DHT22;5013;51.840;8.276;2023-03-14T07:41:02;10.10;1.00
9949;DHT22;5013;51.840;8.276;2023-03-14T07:43:28;10.10;1.00
9949;DHT22;5013;51.840;8.276;2023-03-14T07:45:54;10.10;1.00
9949;DHT22;5013;51.840;8.276;2023-03-14T07:48:19;10.10;1.00
9949;DHT22;5013;51.840;8.276;2023-03-14T07:50:48;10.00;1.00
9949;DHT22;5013;51.840;8.276;2023-03-14T07:53:14;10.10;1.00
9949;DHT22;5013;51.840;8.276;2023-03-14T07:55:40;10.20;1.00
9949;DHT22;5013;51.840;8.276;2023-03-14T07:58:06;10.20;1.00
9949;DHT22;5013;51.840;8.276;2023-03-14T08:00:31;10.30;1.00
9949;DHT22;5013;51.840;8.276;2023-03-14T08:02:58;10.30;1.00
9949;DHT22;5013;51.840;8.276;2023-03-14T08:05:23;10.40;1.00
9949;DHT22;5013;51.840;8.276;2023-03-14T08:07:49;10.50;1.00
9949;DHT22;5013;51.840;8.276;2023-03-14T08:10:15;10.70;1.00
9949;DHT22;5013;51.840;8.276;2023-03-14T08:12:51;10.80;1.00
9949;DHT22;5013;51.840;8.276;2023-03-14T08:15:19;10.80;99.90
9949;DHT22;5013;51.840;8.276;2023-03-14T08:17:44;10.70;99.90
9949;DHT22;5013;51.840;8.276;2023-03-14T08:20:11;10.70;99.90
9949;DHT22;5013;51.840;8.276;2023-03-14T08:22:37;10.70;99.90
9949;DHT22;5013;51.840;8.276;2023-03-14T08:25:03;10.70;99.90
9949;DHT22;5013;51.840;8.276;2023-03-14T08:27:29;10.70;95.00
9949;DHT22;5013;51.840;8.276;2023-03-14T08:29:54;10.70;27.60
9949;DHT22;5013;51.840;8.276;2023-03-14T08:32:20;10.80;12.40
9949;DHT22;5013;51.840;8.276;2023-03-14T08:34:46;10.70;1.00
9949;DHT22;5013;51.840;8.276;2023-03-14T08:37:11;10.70;1.00
9949;DHT22;5013;51.840;8.276;2023-03-14T08:39:37;10.70;1.00
9949;DHT22;5013;51.840;8.276;2023-03-14T08:42:03;10.70;1.00
9949;DHT22;5013;51.840;8.276;2023-03-14T08:44:28;10.70;33.20
9949;DHT22;5013;51.840;8.276;2023-03-14T08:46:54;10.80;99.90
9949;DHT22;5013;51.840;8.276;2023-03-14T08:49:20;10.80;1.00
9949;DHT22;5013;51.840;8.276;2023-03-14T08:51:46;11.10;99.90
9949;DHT22;5013;51.840;8.276;2023-03-14T08:54:11;11.30;1.00
9949;DHT22;5013;51.840;8.276;2023-03-14T08:56:37;11.40;99.90
9949;DHT22;5013;51.840;8.276;2023-03-14T08:59:05;11.60;99.90
9949;DHT22;5013;51.840;8.276;2023-03-14T09:01:31;11.70;1.00
9949;DHT22;5013;51.840;8.276;2023-03-14T09:03:57;11.90;99.90
9949;DHT22;5013;51.840;8.276;2023-03-14T09:06:23;12.30;1.00
9949;DHT22;5013;51.840;8.276;2023-03-14T09:08:49;12.40;1.00
9949;DHT22;5013;51.840;8.276;2023-03-14T09:11:14;12.60;99.90
9949;DHT22;5013;51.840;8.276;2023-03-14T09:13:40;12.50;99.90
9949;DHT22;5013;51.840;8.276;2023-03-14T09:16:07;12.30;99.90
9949;DHT22;5013;51.840;8.276;2023-03-14T09:18:32;12.10;1.00
9949;DHT22;5013;51.840;8.276;2023-03-14T09:20:58;12.00;1.00
9949;DHT22;5013;51.840;8.276;2023-03-14T09:23:24;11.80;91.10
9949;DHT22;5013;51.840;8.276;2023-03-14T09:25:55;11.90;1.00
9949;DHT22;5013;51.840;8.276;2023-03-14T09:28:21;11.90;99.90
9949;DHT22;5013;51.840;8.276;2023-03-14T09:30:46;11.90;1.00
9949;DHT22;5013;51.840;8.276;2023-03-14T09:33:12;11.90;99.90
9949;DHT22;5013;51.840;8.276;2023-03-14T09:35:38;11.90;1.00
9949;DHT22;5013;51.840;8.276;2023-03-14T09:38:03;11.90;99.90
9949;DHT22;5013;51.840;8.276;2023-03-14T09:40:34;11.90;99.90
9949;DHT22;5013;51.840;8.276;2023-03-14T09:43:00;11.90;39.20
9949;DHT22;5013;51.840;8.276;2023-03-14T09:45:27;11.70;1.00
9949;DHT22;5013;51.840;8.276;2023-03-14T09:47:55;11.60;99.90
9949;DHT22;5013;51.840;8.276;2023-03-14T09:50:21;11.50;99.90
9949;DHT22;5013;51.840;8.276;2023-03-14T09:52:49;11.50;1.00
9949;DHT22;5013;51.840;8.276;2023-03-14T09:55:19;11.40;1.00
9949;DHT22;5013;51.840;8.276;2023-03-14T09:57:51;11.50;1.00
9949;DHT22;5013;51.840;8.276;2023-03-14T10:00:26;11.50;1.00
9949;DHT22;5013;51.840;8.276;2023-03-14T10:03:06;11.50;1.00
9949;DHT22;5013;51.840;8.276;2023-03-14T10:05:32;11.40;38.70
9949;DHT22;5013;51.840;8.276;2023-03-14T10:07:58;11.30;1.00
9949;DHT22;5013;51.840;8.276;2023-03-14T10:10:25;11.30;1.00
9949;DHT22;5013;51.840;8.276;2023-03-14T10:15:54;11.20;99.90
9949;DHT22;5013;51.840;8.276;2023-03-14T10:18:23;11.00;99.90
9949;DHT22;5013;51.840;8.276;2023-03-14T10:20:57;11.00;99.90
9949;DHT22;5013;51.840;8.276;2023-03-14T10:23:29;11.00;99.90
9949;DHT22;5013;51.840;8.276;2023-03-14T10:26:06;11.00;1.00
9949;DHT22;5013;51.840;8.276;2023-03-14T10:28:53;11.00;1.00
9949;DHT22;5013;51.840;8.276;2023-03-14T10:31:25;10.90;1.00
9949;DHT22;5013;51.840;8.276;2023-03-14T10:34:02;10.80;1.00
9949;DHT22;5013;51.840;8.276;2023-03-14T10:36:30;10.70;1.00
9949;DHT22;5013;51.840;8.276;2023-03-14T10:42:01;9.00;1.00
9949;DHT22;5013;51.840;8.276;2023-03-14T10:44:28;8.60;1.00
9949;DHT22;5013;51.840;8.276;2023-03-14T10:47:04;8.40;1.00
9949;DHT22;5013;51.840;8.276;2023-03-14T10:49:35;8.40;1.00
9949;DHT22;5013;51.840;8.276;2023-03-14T10:54:58;8.40;1.00
9949;DHT22;5013;51.840;8.276;2023-03-14T10:57:25;8.30;1.00
9949;DHT22;5013;51.840;8.276;2023-03-14T10:59:52;8.30;1.00
9949;DHT22;5013;51.840;8.276;2023-03-14T11:02:45;8.40;1.00
9949;DHT22;5013;51.840;8.276;2023-03-14T11:08:52;8.40;1.00
9949;DHT22;5013;51.840;8.276;2023-03-14T11:11:28;8.30;1.00
9949;DHT22;5013;51.840;8.276;2023-03-14T11:19:38;7.70;99.90
9949;DHT22;5013;51.840;8.276;2023-03-14T11:27:52;7.50;99.90
9949;DHT22;5013;51.840;8.276;2023-03-14T11:30:39;7.30;99.90
9949;DHT22;5013;51.840;8.276;2023-03-14T11:33:28;7.20;99.90
9949;DHT22;5013;51.840;8.276;2023-03-14T11:36:10;7.10;1.00
9949;DHT22;5013;51.840;8.276;2023-03-14T11:41:18;6.80;1.00
9949;DHT22;5013;51.840;8.276;2023-03-14T11:43:47;6.80;1.00
9949;DHT22;5013;51.840;8.276;2023-03-14T11:51:46;6.80;1.00
9949;DHT22;5013;51.840;8.276;2023-03-14T11:54:24;6.60;1.00
9949;DHT22;5013;51.840;8.276;2023-03-14T11:56:57;6.30;1.00
9949;DHT22;5013;51.840;8.276;2023-03-14T11:59:29;6.40;99.90
9949;DHT22;5013;51.840;8.276;2023-03-14T12:05:20;6.20;1.00
9949;DHT22;5013;51.840;8.276;2023-03-14T12:10:26;6.00;99.90
9949;DHT22;5013;51.840;8.276;2023-03-14T12:12:52;6.10;1.00
9949;DHT22;5013;51.840;8.276;2023-03-14T12:15:20;6.20;1.00
9949;DHT22;5013;51.840;8.276;2023-03-14T12:17:47;6.50;1.00
9949;DHT22;5013;51.840;8.276;2023-03-14T12:20:20;6.70;1.00
9949;DHT22;5013;51.840;8.276;2023-03-14T12:22:47;6.70;99.90
9949;DHT22;5013;51.840;8.276;2023-03-14T12:25:23;7.00;99.90
9949;DHT22;5013;51.840;8.276;2023-03-14T12:30:41;6.90;99.90
9949;DHT22;5013;51.840;8.276;2023-03-14T12:35:38;6.90;1.00
9949;DHT22;5013;51.840;8.276;2023-03-14T12:38:09;7.10;1.00
9949;DHT22;5013;51.840;8.276;2023-03-14T12:43:33;7.00;1.00
9949;DHT22;5013;51.840;8.276;2023-03-14T12:49:04;7.30;1.00
9949;DHT22;5013;51.840;8.276;2023-03-14T12:51:35;7.20;1.00
9949;DHT22;5013;51.840;8.276;2023-03-14T13:04:32;7.60;99.90
9949;DHT22;5013;51.840;8.276;2023-03-14T13:06:59;7.60;99.90
9949;DHT22;5013;51.840;8.276;2023-03-14T13:12:07;7.20;99.90
9949;DHT22;5013;51.840;8.276;2023-03-14T13:14:34;7.20;1.00
9949;DHT22;5013;51.840;8.276;2023-03-14T13:17:01;7.10;99.90
9949;DHT22;5013;51.840;8.276;2023-03-14T13:19:29;7.00;1.00
9949;DHT22;5013;51.840;8.276;2023-03-14T13:22:01;7.10;1.00
9949;DHT22;5013;51.840;8.276;2023-03-14T13:24:27;7.00;99.90
9949;DHT22;5013;51.840;8.276;2023-03-14T13:26:55;7.00;1.00
9949;DHT22;5013;51.840;8.276;2023-03-14T13:29:23;7.10;1.00
9949;DHT22;5013;51.840;8.276;2023-03-14T13:31:58;6.90;99.90
9949;DHT22;5013;51.840;8.276;2023-03-14T13:34:32;7.00;1.00
9949;DHT22;5013;51.840;8.276;2023-03-14T13:36:59;7.00;1.00
9949;DHT22;5013;51.840;8.276;2023-03-14T13:39:26;7.00;1.00
9949;DHT22;5013;51.840;8.276;2023-03-14T13:42:03;7.00;1.00
9949;DHT22;5013;51.840;8.276;2023-03-14T13:44:34;6.90;1.00
9949;DHT22;5013;51.840;8.276;2023-03-14T13:47:01;6.80;1.00
9949;DHT22;5013;51.840;8.276;2023-03-14T13:49:29;6.80;99.90
9949;DHT22;5013;51.840;8.276;2023-03-14T13:51:58;6.80;1.00
9949;DHT22;5013;51.840;8.276;2023-03-14T13:54:25;7.00;99.90
9949;DHT22;5013;51.840;8.276;2023-03-14T13:57:09;7.10;1.00
9949;DHT22;5013;51.840;8.276;2023-03-14T13:59:35;7.30;99.90
9949;DHT22;5013;51.840;8.276;2023-03-14T14:02:13;7.60;12.70
9949;DHT22;5013;51.840;8.276;2023-03-14T14:04:40;7.60;99.90
9949;DHT22;5013;51.840;8.276;2023-03-14T14:07:08;7.60;99.90
9949;DHT22;5013;51.840;8.276;2023-03-14T14:09:43;7.60;99.90
9949;DHT22;5013;51.840;8.276;2023-03-14T14:12:16;7.60;99.90
9949;DHT22;5013;51.840;8.276;2023-03-14T14:17:25;7.50;1.00
9949;DHT22;5013;51.840;8.276;2023-03-14T14:19:52;7.50;1.00
9949;DHT22;5013;51.840;8.276;2023-03-14T14:22:18;7.60;99.90
9949;DHT22;5013;51.840;8.276;2023-03-14T14:24:45;7.60;99.90
9949;DHT22;5013;51.840;8.276;2023-03-14T14:27:17;7.70;33.50
9949;DHT22;5013;51.840;8.276;2023-03-14T14:29:44;7.80;1.00
9949;DHT22;5013;51.840;8.276;2023-03-14T14:32:21;7.80;1.00
9949;DHT22;5013;51.840;8.276;2023-03-14T14:39:47;7.60;1.00
9949;DHT22;5013;51.840;8.276;2023-03-14T14:42:16;7.60;1.00
9949;DHT22;5013;51.840;8.276;2023-03-14T14:44:44;7.40;1.00
9949;DHT22;5013;51.840;8.276;2023-03-14T14:47:14;7.30;1.00
9949;DHT22;5013;51.840;8.276;2023-03-14T14:49:41;7.40;1.00
9949;DHT22;5013;51.840;8.276;2023-03-14T14:52:20;7.40;1.00
9949;DHT22;5013;51.840;8.276;2023-03-14T14:54:51;7.40;1.00
9949;DHT22;5013;51.840;8.276;2023-03-14T14:57:32;7.50;1.00
9949;DHT22;5013;51.840;8.276;2023-03-14T15:00:05;7.80;99.90
9949;DHT22;5013;51.840;8.276;2023-03-14T15:02:37;8.00;99.90
9949;DHT22;5013;51.840;8.276;2023-03-14T15:05:29;8.10;99.90
9949;DHT22;5013;51.840;8.276;2023-03-14T15:07:56;8.00;99.90
9949;DHT22;5013;51.840;8.276;2023-03-14T15:10:24;7.90;99.90
9949;DHT22;5013;51.840;8.276;2023-03-14T15:12:51;7.90;99.90
9949;DHT22;5013;51.840;8.276;2023-03-14T15:15:17;7.90;99.90
9949;DHT22;5013;51.840;8.276;2023-03-14T15:17:43;8.10;99.90
9949;DHT22;5013;51.840;8.276;2023-03-14T15:20:14;8.30;99.90
9949;DHT22;5013;51.840;8.276;2023-03-14T15:22:41;8.40;85.30
9949;DHT22;5013;51.840;8.276;2023-03-14T15:25:07;8.40;99.90
9949;DHT22;5013;51.840;8.276;2023-03-14T15:27:33;8.20;99.90
9949;DHT22;5013;51.840;8.276;2023-03-14T15:29:59;8.20;99.90
9949;DHT22;5013;51.840;8.276;2023-03-14T15:32:25;8.10;99.90
9949;DHT22;5013;51.840;8.276;2023-03-14T15:34:56;8.30;99.90
9949;DHT22;5013;51.840;8.276;2023-03-14T15:37:21;8.30;99.90
9949;DHT22;5013;51.840;8.276;2023-03-14T15:39:47;8.40;99.90
9949;DHT22;5013;51.840;8.276;2023-03-14T15:42:13;8.30;99.90
9949;DHT22;5013;51.840;8.276;2023-03-14T15:44:39;8.30;42.60
9949;DHT22;5013;51.840;8.276;2023-03-14T15:47:05;8.20;42.50
9949;DHT22;5013;51.840;8.276;2023-03-14T15:49:31;8.10;16.00
9949;DHT22;5013;51.840;8.276;2023-03-14T15:51:57;8.00;1.00
9949;DHT22;5013;51.840;8.276;2023-03-14T15:54:23;7.90;1.00
9949;DHT22;5013;51.840;8.276;2023-03-14T15:56:49;7.80;11.40
9949;DHT22;5013;51.840;8.276;2023-03-14T15:59:14;7.70;1.00
9949;DHT22;5013;51.840;8.276;2023-03-14T16:01:40;7.50;1.00
9949;DHT22;5013;51.840;8.276;2023-03-14T16:04:06;7.60;1.00
9949;DHT22;5013;51.840;8.276;2023-03-14T16:06:31;7.60;1.00
9949;DHT22;5013;51.840;8.276;2023-03-14T16:08:57;7.50;1.00
9949;DHT22;5013;51.840;8.276;2023-03-14T16:11:23;7.60;1.00
9949;DHT22;5013;51.840;8.276;2023-03-14T16:13:49;7.60;1.00
9949;DHT22;5013;51.840;8.276;2023-03-14T16:16:15;7.60;1.00
9949;DHT22;5013;51.840;8.276;2023-03-14T16:18:41;7.40;1.00
9949;DHT22;5013;51.840;8.276;2023-03-14T16:21:17;7.30;1.00
9949;DHT22;5013;51.840;8.276;2023-03-14T16:23:43;7.20;1.00
9949;DHT22;5013;51.840;8.276;2023-03-14T16:26:12;7.10;1.00
9949;DHT22;5013;51.840;8.276;2023-03-14T16:28:40;7.00;1.00
9949;DHT22;5013;51.840;8.276;2023-03-14T16:31:09;6.90;1.00
9949;DHT22;5013;51.840;8.276;2023-03-14T16:33:36;6.90;1.00
9949;DHT22;5013;51.840;8.276;2023-03-14T16:36:04;6.80;8.80
9949;DHT22;5013;51.840;8.276;2023-03-14T16:38:33;6.80;1.00
9949;DHT22;5013;51.840;8.276;2023-03-14T16:41:02;6.80;2.80
9949;DHT22;5013;51.840;8.276;2023-03-14T16:43:28;6.80;8.40
9949;DHT22;5013;51.840;8.276;2023-03-14T16:45:57;6.70;26.60
9949;DHT22;5013;51.840;8.276;2023-03-14T16:48:24;6.70;99.90
9949;DHT22;5013;51.840;8.276;2023-03-14T16:50:50;6.70;78.20
9949;DHT22;5013;51.840;8.276;2023-03-14T16:53:16;6.70;97.90
9949;DHT22;5013;51.840;8.276;2023-03-14T16:55:41;6.60;91.60
9949;DHT22;5013;51.840;8.276;2023-03-14T16:58:08;6.60;99.90
9949;DHT22;5013;51.840;8.276;2023-03-14T17:00:33;6.60;99.50
9949;DHT22;5013;51.840;8.276;2023-03-14T17:02:59;6.60;99.90
9949;DHT22;5013;51.840;8.276;2023-03-14T17:05:24;6.50;99.90
9949;DHT22;5013;51.840;8.276;2023-03-14T17:07:50;6.40;66.30
9949;DHT22;5013;51.840;8.276;2023-03-14T17:10:16;6.40;94.50
9949;DHT22;5013;51.840;8.276;2023-03-14T17:12:43;6.30;99.90
9949;DHT22;5013;51.840;8.276;2023-03-14T17:15:09;6.20;99.90
9949;DHT22;5013;51.840;8.276;2023-03-14T17:17:35;6.20;99.90
9949;DHT22;5013;51.840;8.276;2023-03-14T17:20:01;6.20;99.90
9949;DHT22;5013;51.840;8.276;2023-03-14T17:22:28;6.10;99.90
9949;DHT22;5013;51.840;8.276;2023-03-14T17:24:53;6.10;99.90
9949;DHT22;5013;51.840;8.276;2023-03-14T17:27:19;6.10;99.90
9949;DHT22;5013;51.840;8.276;2023-03-14T17:29:46;6.10;99.90
9949;DHT22;5013;51.840;8.276;2023-03-14T17:32:13;6.10;99.90
9949;DHT22;5013;51.840;8.276;2023-03-14T17:34:39;6.00;89.50
9949;DHT22;5013;51.840;8.276;2023-03-14T17:37:04;6.00;22.80
9949;DHT22;5013;51.840;8.276;2023-03-14T17:39:30;5.90;67.90
9949;DHT22;5013;51.840;8.276;2023-03-14T17:41:55;5.90;3.80
9949;DHT22;5013;51.840;8.276;2023-03-14T17:44:21;5.90;1.00